x

Western Gulf Of Alaska - 175nm Se Of Kodiak, Ak (46001) Wave Buoy

8:50am - Fri 28th Aug 2015 All times are AKDT. -8 hours from GMT.

  • Sig Wave height 19.7ft
  • Peak Period 11s
  • Average Period 8s
  • Wind
    36mph, 43mph gusts
  • Sea Temp 56°f
  • Air Temp 55°f
  • Sea Pressure 1002.6mb
  • Western Gulf Of Alaska  - 175nm Se Of Kodiak, Ak
  • Western Gulf Of Alaska  - 175nm Se Of Kodiak, Ak

More Historic Weather Station data

Upgrade to MSW Pro to gain access to the past 30 days of data for over 8000 Wavebouys and Weather Stations around the globe.

Join Pro

Comparision Forecast

View Surf forecast
   
Fri 08/28 8:50am 19.5ft 11s 8s 36 43 mph 1002.6mb 56f 55f
7:50am 19ft 11s 8s 38 45 mph 1002.7mb 57f 55f
6:50am 20.5ft 11s 8s 36 47 mph 1002.6mb 57f 56f
5:50am 19ft 11s 8s 36 45 mph 1002.5mb 57f 56f
4:50am 16.5ft 11s 7s 34 43 mph 1002.4mb 57f 56f
3:50am 20.5ft 11s 8s 36 47 mph 1001.8mb 57f 56f
2:50am 18.5ft 10s 7s 36 45 mph 1002.3mb 57f 56f
1:50am 18.5ft 11s 8s 38 45 mph 1002.4mb 57f 56f
12:50am 19.5ft 11s 8s 38 47 mph 1002.7mb 57f 56f
Thu 08/27 11:50pm 18ft 9s 7s 36 45 mph 1002.6mb 57f 56f
10:50pm 16ft 9s 7s 36 47 mph 1002.9mb 57f 57f
9:50pm 13.5ft 9s 7s 29 38 mph 1003.6mb 57f 58f
8:50pm 13ft 10s 7s 22 27 mph 1004.7mb 57f 57f
7:50pm 13ft 9s 7s 20 25 mph 1005.3mb 57f 57f
6:50pm 13ft 9s 7s 20 25 mph 1005.7mb 57f 57f
5:50pm 10.5ft 8s 7s 20 22 mph 1006.2mb 57f 57f
4:50pm 9ft 8s 6s 20 25 mph 1006.9mb 57f 57f
3:50pm 8ft 8s 6s 16 18 mph 1007.6mb 57f 58f
2:50pm 8.5ft 9s 6s 16 20 mph 1008.2mb 57f 58f
1:50pm 8ft 9s 6s 20 22 mph 1008.6mb 57f 58f
12:50pm 6.5ft 8s 6s 18 22 mph 1009.1mb 57f 57f
11:50am 6ft 8s 5s 18 20 mph 1009.7mb 57f 57f
10:50am 6.5ft 8s 6s 18 20 mph 1010.1mb 57f 58f
9:50am 6.5ft 8s 6s 18 20 mph 1010.4mb 57f 58f
8:50am 6ft 8s 6s 16 20 mph 1011.2mb 57f 57f
7:50am 6ft 8s 6s 13 16 mph 1011.9mb 57f 57f
6:50am 5.5ft 8s 6s 13 16 mph 1012.6mb 57f 57f
5:50am 7ft 8s 6s 13 16 mph 1013mb 57f 57f
4:50am 6ft 8s 6s 13 16 mph 1013.9mb 57f 57f
3:50am 6.5ft 8s 6s 13
mph
1014.4mb 57f 57f
2:50am 5ft 8s 6s 11 13 mph 1014.6mb 57f 57f
1:50am 5ft 7s 6s 11 13 mph 1014.9mb 57f 57f
12:50am 4.5ft 7s 6s 13 16 mph 1015.4mb 57f 57f
Wed 08/26 11:50pm 4.5ft 7s 6s 11 13 mph 1015.9mb 57f 57f
10:50pm 5ft 7s 5s 13 16 mph 1016.2mb 57f 57f
9:50pm 4.5ft 7s 5s 13 16 mph 1016.7mb 57f 57f
8:50pm 5ft 7s 5s 13 18 mph 1017.1mb 57f 57f
7:50pm 4.5ft 15s 5s 16 20 mph 1017.1mb 57f 57f
6:50pm 5ft 7s 5s 16 18 mph 1017.6mb 57f 57f
5:50pm 5ft 6s 5s 18 20 mph 1018.1mb 57f 56f
4:50pm 5.5ft 13s 5s 18 20 mph 1018.9mb 57f 56f
3:50pm 6ft 14s 5s 16 20 mph 1019.5mb 57f 56f
2:50pm 4.5ft 6s 4s 20 25 mph 1019.9mb 57f 56f
1:50pm 4ft 14s 4s 16 20 mph 1020.4mb 57f 56f
12:50pm 4.5ft 14s 5s 18 20 mph 1020.8mb 57f 56f
11:50am 4ft 14s 5s 13 18 mph 1020.8mb 57f 55f
10:50am 4ft 14s 5s 16 18 mph 1021.7mb 57f 55f
9:50am 4.5ft 15s 6s 13 16 mph 1021.9mb 57f 55f
8:50am 4.5ft 15s 6s 13 18 mph 1022.3mb 57f 55f
7:50am 4.5ft 15s 6s 9 11 mph 1022.5mb 57f 55f
6:50am 4ft 14s 5s 11 13 mph 1022.9mb 57f 55f
5:50am 4ft 15s 5s 11 13 mph 1022.8mb 57f 55f
4:50am 4.5ft 15s 5s 13 16 mph 1023.2mb 57f 55f
3:50am 4.5ft 14s 6s 13 16 mph 1023.5mb 57f 54f
2:50am 4.5ft 14s 5s 13 16 mph 1023.6mb 57f 55f
1:50am 4.5ft 15s 6s 13 16 mph 1023.7mb 57f 55f
12:50am 4.5ft 15s 6s 16 20 mph 1023.8mb 57f 55f
Tue 08/25 11:50pm 4ft 14s 5s 16 18 mph 1024mb 57f 55f
10:50pm 3.5ft 15s 6s 13 18 mph 1023.9mb 58f 55f
9:50pm 3.5ft 15s 6s 13 18 mph 1024.2mb 58f 55f
8:50pm 3.5ft 13s 5s 13 16 mph 1024.1mb 58f 56f
7:50pm 4ft 15s 6s 13 16 mph 1024.1mb 58f 56f
6:50pm 4ft 15s 7s 11
mph
1024.5mb 58f 57f
5:50pm 4ft 15s 7s 11 13 mph 1024.9mb 58f 58f
4:50pm 4ft 14s 7s 11 13 mph 1025.2mb 58f 58f
3:50pm 4.5ft 15s 7s 9 11 mph 1025mb 58f 58f
2:50pm 4ft 14s 6s 9 11 mph 1025mb 58f 58f
1:50pm 4ft 15s 7s 9 11 mph 1025.1mb 58f 57f
12:50pm 4.5ft 15s 7s 7 9 mph 1025.1mb 58f 57f
11:50am 4.5ft 14s 7s 7 9 mph 1025.1mb 57f 57f
10:50am 4ft 15s 6s 9
mph
1024.6mb 57f 57f
9:50am 4.5ft 15s 7s 7 9 mph 1024.9mb 57f 56f
8:50am 4.5ft 15s 7s 9 11 mph 1025.2mb 57f 56f
7:50am 4.5ft 15s 7s 7 9 mph 1024.7mb 57f 56f
6:50am 4.5ft 15s 6s 4
mph
1024.4mb 57f 55f
5:50am 5ft 13s 6s 4 9 mph 1024.4mb 57f 55f
4:50am 5ft 14s 6s 2 4 mph 1024.1mb 57f 55f
3:50am 4.5ft 14s 6s 4 7 mph 1024mb 57f 55f
2:50am 5ft 14s 6s 4 9 mph 1023.8mb 57f 56f
1:50am 5ft 14s 6s 9 11 mph 1023.3mb 57f 56f
12:50am 5ft 7s 6s 9 11 mph 1023.2mb 57f 56f
Mon 08/24 11:50pm 4.5ft 7s 6s 11 13 mph 1022.5mb 57f 56f
10:50pm 5ft 15s 6s 11 13 mph 1022.2mb 57f 56f
9:50pm 5ft 7s 6s 9 11 mph 1021.3mb 57f 57f
8:50pm 5ft 15s 6s 11 13 mph 1020.8mb 58f 57f
7:50pm 5ft 8s 6s 9 11 mph 1020.4mb 58f 57f
6:50pm 5.5ft 8s 6s 11 13 mph 1019.9mb 58f 57f